Time;durP1;ratioP1;P1;durP2;ratioP2;P2;SDS_P1;SDS_P2;PMS_P1;PMS_P2;Temp;Humidity;BMP_temperature;BMP_pressure;BME280_temperature;BME280_humidity;BME280_pressure;Samples;Min_cycle;Max_cycle;Signal;HPM_P1;HPM_P2
2023/04/26 00:01:03;;;;;;;4.20;1.47;;;;;;;;;;5016406;28;20034;-79
2023/04/26 00:03:29;;;;;;;5.68;1.40;;;;;;;;;;5016380;28;20676;-79
2023/04/26 00:05:54;;;;;;;3.20;1.50;;;;;;;;;;5017402;28;20044;-79
2023/04/26 00:08:19;;;;;;;4.22;1.70;;;;;;;;;;5015656;28;20063;-78
2023/04/26 00:10:44;;;;;;;6.10;2.00;;;;;;;;;;5015649;28;20481;-78
2023/04/26 00:13:10;;;;;;;4.70;1.45;;;;;;;;;;5016530;28;20745;-78
2023/04/26 00:15:35;;;;;;;5.27;1.90;;;;;;;;;;5017472;28;20021;-78
2023/04/26 00:18:01;;;;;;;6.82;1.52;;;;;;;;;;5016544;28;20262;-79
2023/04/26 00:20:26;;;;;;;4.25;1.75;;;;;;;;;;5016946;28;20144;-78
2023/04/26 00:22:52;;;;;;;2.60;1.50;;;;;;;;;;5016353;28;20045;-79
2023/04/26 00:25:17;;;;;;;4.25;1.50;;;;;;;;;;5015535;28;20516;-78
2023/04/26 00:27:42;;;;;;;5.85;1.60;;;;;;;;;;5016535;28;20029;-78
2023/04/26 00:30:08;;;;;;;2.67;1.33;;;;;;;;;;5014755;28;20030;-79
2023/04/26 00:32:34;;;;;;;3.38;1.55;;;;;;;;;;5016308;28;20255;-78
2023/04/26 00:34:59;;;;;;;5.25;1.60;;;;;;;;;;5015967;28;20025;-78
2023/04/26 00:37:24;;;;;;;4.53;1.60;;;;;;;;;;5016292;28;20022;-79
2023/04/26 00:39:50;;;;;;;4.22;1.40;;;;;;;;;;5016117;28;20025;-78
2023/04/26 00:42:15;;;;;;;3.10;1.60;;;;;;;;;;5028851;28;20026;-79
2023/04/26 00:44:41;;;;;;;3.63;1.50;;;;;;;;;;5027016;28;20301;-79
2023/04/26 00:47:06;;;;;;;3.97;1.70;;;;;;;;;;5027957;28;20048;-78
2023/04/26 00:49:32;;;;;;;5.65;1.80;;;;;;;;;;5026567;28;20064;-79
2023/04/26 00:51:57;;;;;;;8.18;1.45;;;;;;;;;;5026700;28;20030;-79
2023/04/26 00:54:24;;;;;;;5.07;1.67;;;;;;;;;;5025365;28;20080;-79
2023/04/26 00:56:51;;;;;;;5.18;1.58;;;;;;;;;;5027393;28;20030;-78
2023/04/26 00:59:18;;;;;;;4.38;1.58;;;;;;;;;;5025745;28;20049;-78
2023/04/26 01:01:43;;;;;;;5.45;1.70;;;;;;;;;;5024434;28;20058;-79
2023/04/26 01:04:08;;;;;;;6.83;1.83;;;;;;;;;;5024335;28;20033;-79
2023/04/26 01:06:34;;;;;;;4.97;1.58;;;;;;;;;;5026209;28;20297;-78
2023/04/26 01:09:07;;;;;;;6.60;1.80;;;;;;;;;;5025652;28;20405;-79
2023/04/26 01:11:34;;;;;;;4.00;1.52;;;;;;;;;;5027326;28;20030;-79
2023/04/26 01:13:59;;;;;;;3.10;1.73;;;;;;;;;;5023312;28;20064;-79
2023/04/26 01:16:27;;;;;;;4.32;1.60;;;;;;;;;;5013444;28;20029;-80
2023/04/26 01:18:53;;;;;;;3.92;1.60;;;;;;;;;;5014042;28;20478;-79
2023/04/26 01:21:23;;;;;;;3.03;1.90;;;;;;;;;;5014079;28;20500;-78
2023/04/26 01:23:49;;;;;;;3.28;1.55;;;;;;;;;;5014307;28;20033;-80
2023/04/26 01:26:15;;;;;;;3.13;1.70;;;;;;;;;;5015117;28;20054;-78
2023/04/26 01:28:41;;;;;;;2.92;1.65;;;;;;;;;;5014876;28;20025;-79
2023/04/26 01:31:06;;;;;;;2.20;1.37;;;;;;;;;;5014289;28;20076;-78
2023/04/26 01:33:31;;;;;;;5.10;1.40;;;;;;;;;;5013817;28;20255;-79
2023/04/26 01:35:57;;;;;;;2.75;1.52;;;;;;;;;;5015637;28;20030;-79
2023/04/26 01:38:22;;;;;;;4.18;1.67;;;;;;;;;;5015141;28;20025;-79
2023/04/26 01:40:47;;;;;;;5.03;1.80;;;;;;;;;;5018744;28;20030;-79
2023/04/26 01:43:14;;;;;;;3.55;1.70;;;;;;;;;;5019327;28;20021;-78
2023/04/26 01:45:40;;;;;;;3.95;1.67;;;;;;;;;;5018599;28;20072;-79
2023/04/26 01:48:05;;;;;;;3.83;1.55;;;;;;;;;;5018231;28;20100;-78
2023/04/26 01:50:31;;;;;;;5.43;1.83;;;;;;;;;;5017434;28;20025;-78
2023/04/26 01:52:56;;;;;;;6.10;1.60;;;;;;;;;;5018356;28;20054;-78
2023/04/26 01:55:21;;;;;;;8.60;2.10;;;;;;;;;;5018253;28;20022;-78
2023/04/26 01:57:46;;;;;;;4.32;1.60;;;;;;;;;;5018919;28;20030;-78
2023/04/26 02:00:12;;;;;;;8.80;1.63;;;;;;;;;;5017830;28;20034;-78
2023/04/26 02:02:37;;;;;;;10.93;2.00;;;;;;;;;;5018389;28;20338;-78
2023/04/26 02:05:02;;;;;;;2.30;1.38;;;;;;;;;;5016852;28;20026;-79
2023/04/26 02:07:28;;;;;;;3.03;1.33;;;;;;;;;;5018252;28;20022;-79
2023/04/26 02:09:53;;;;;;;4.23;1.60;;;;;;;;;;5016861;28;20022;-79
2023/04/26 02:12:18;;;;;;;4.40;1.87;;;;;;;;;;5017001;28;20263;-78
2023/04/26 02:14:43;;;;;;;5.90;1.80;;;;;;;;;;5016744;28;20286;-78
2023/04/26 02:17:10;;;;;;;4.63;1.67;;;;;;;;;;5017217;28;20252;-80
2023/04/26 02:19:35;;;;;;;4.95;1.58;;;;;;;;;;5016544;28;20489;-78
2023/04/26 02:22:00;;;;;;;3.40;1.60;;;;;;;;;;5017696;28;20021;-80
2023/04/26 02:24:25;;;;;;;4.57;1.53;;;;;;;;;;5018446;28;20535;-79
2023/04/26 02:26:53;;;;;;;6.80;2.33;;;;;;;;;;5017917;28;20730;-79
2023/04/26 02:29:18;;;;;;;2.72;1.48;;;;;;;;;;5017229;28;20404;-80
2023/04/26 02:31:44;;;;;;;4.03;1.80;;;;;;;;;;5017832;28;20100;-79
2023/04/26 02:34:09;;;;;;;5.20;1.90;;;;;;;;;;5018045;28;20029;-81
2023/04/26 02:36:34;;;;;;;6.37;1.90;;;;;;;;;;5016167;28;20072;-79
2023/04/26 02:39:00;;;;;;;6.07;1.70;;;;;;;;;;5017752;28;20259;-79
2023/04/26 02:41:25;;;;;;;2.03;1.40;;;;;;;;;;5015806;28;20022;-78
2023/04/26 02:43:50;;;;;;;7.03;1.85;;;;;;;;;;5017596;28;20432;-79
2023/04/26 02:46:16;;;;;;;4.13;1.63;;;;;;;;;;5016858;28;20036;-77
2023/04/26 02:48:41;;;;;;;6.15;2.00;;;;;;;;;;5017794;28;20025;-80
2023/04/26 02:51:07;;;;;;;4.35;1.73;;;;;;;;;;5015635;28;20477;-79
2023/04/26 02:53:32;;;;;;;3.92;1.90;;;;;;;;;;5017307;28;20026;-79
2023/04/26 02:55:59;;;;;;;5.82;1.80;;;;;;;;;;5015775;28;20018;-78
2023/04/26 02:58:24;;;;;;;4.90;1.58;;;;;;;;;;5017150;28;20100;-79
2023/04/26 03:00:50;;;;;;;4.32;1.88;;;;;;;;;;5015526;28;20437;-79
2023/04/26 03:03:15;;;;;;;5.57;1.80;;;;;;;;;;5017310;28;20021;-79
2023/04/26 03:05:40;;;;;;;5.22;2.05;;;;;;;;;;5016955;28;20055;-78
2023/04/26 03:08:06;;;;;;;3.85;1.67;;;;;;;;;;5016628;28;20106;-76
2023/04/26 03:10:32;;;;;;;6.15;1.85;;;;;;;;;;5015436;28;20013;-78
2023/04/26 03:12:57;;;;;;;9.15;1.75;;;;;;;;;;5016328;28;20029;-79
2023/04/26 03:15:22;;;;;;;5.17;1.70;;;;;;;;;;5016229;28;20488;-79
2023/04/26 03:17:47;;;;;;;5.67;1.80;;;;;;;;;;5017142;28;20759;-79
2023/04/26 03:20:13;;;;;;;3.17;1.50;;;;;;;;;;5016430;28;20718;-78
2023/04/26 03:22:38;;;;;;;4.22;1.40;;;;;;;;;;5015576;28;20061;-78
2023/04/26 03:25:04;;;;;;;5.05;1.85;;;;;;;;;;5014980;28;20085;-78
2023/04/26 03:27:29;;;;;;;5.30;1.60;;;;;;;;;;5016626;28;20032;-78
2023/04/26 03:29:55;;;;;;;3.58;1.73;;;;;;;;;;5016305;28;20452;-79
2023/04/26 03:32:20;;;;;;;3.03;1.70;;;;;;;;;;5016385;28;20021;-79
2023/04/26 03:34:47;;;;;;;7.20;2.03;;;;;;;;;;5016566;28;20735;-79
2023/04/26 03:37:12;;;;;;;4.40;1.55;;;;;;;;;;5015129;28;20255;-78
2023/04/26 03:39:38;;;;;;;4.57;1.75;;;;;;;;;;5016240;28;20026;-78
2023/04/26 03:42:03;;;;;;;6.60;1.60;;;;;;;;;;5016490;28;20393;-79
2023/04/26 03:44:28;;;;;;;3.85;1.80;;;;;;;;;;5016119;28;20674;-78
2023/04/26 03:46:53;;;;;;;9.00;1.67;;;;;;;;;;5015894;28;20037;-79
2023/04/26 03:49:19;;;;;;;7.40;1.90;;;;;;;;;;5016216;28;20267;-78
2023/04/26 03:51:44;;;;;;;4.88;1.80;;;;;;;;;;5016389;28;20049;-79
2023/04/26 03:54:09;;;;;;;3.53;1.70;;;;;;;;;;5015194;28;20026;-79
2023/04/26 03:56:35;;;;;;;3.83;1.48;;;;;;;;;;5015593;28;20057;-80
2023/04/26 03:59:01;;;;;;;4.68;1.80;;;;;;;;;;5016780;28;20022;-79
2023/04/26 04:01:26;;;;;;;3.13;1.50;;;;;;;;;;5015775;28;20053;-79
2023/04/26 04:03:51;;;;;;;5.93;1.70;;;;;;;;;;5016560;28;20033;-79
2023/04/26 04:06:16;;;;;;;2.90;1.37;;;;;;;;;;5016099;28;20037;-79
2023/04/26 04:08:42;;;;;;;6.73;1.70;;;;;;;;;;5016029;28;20267;-79
2023/04/26 04:11:07;;;;;;;3.87;1.47;;;;;;;;;;5015521;28;20301;-79
2023/04/26 04:13:32;;;;;;;7.45;2.00;;;;;;;;;;5015531;28;20353;-79
2023/04/26 04:15:57;;;;;;;4.57;1.60;;;;;;;;;;5015103;28;20132;-79
2023/04/26 04:18:23;;;;;;;4.68;1.40;;;;;;;;;;5014312;28;20251;-78
2023/04/26 04:20:48;;;;;;;6.85;1.77;;;;;;;;;;5014935;28;20061;-79
2023/04/26 04:23:13;;;;;;;2.97;1.40;;;;;;;;;;5015235;28;20017;-79
2023/04/26 04:25:38;;;;;;;5.15;1.60;;;;;;;;;;5014460;28;20402;-78
2023/04/26 04:28:04;;;;;;;6.70;1.60;;;;;;;;;;5014585;28;20033;-78
2023/04/26 04:30:29;;;;;;;7.28;1.63;;;;;;;;;;5014261;28;20049;-78
2023/04/26 04:32:58;;;;;;;3.00;1.40;;;;;;;;;;5013283;28;20025;-78
2023/04/26 04:35:27;;;;;;;6.03;1.80;;;;;;;;;;5013195;28;20030;-78
2023/04/26 04:37:52;;;;;;;7.82;1.77;;;;;;;;;;5015033;28;20535;-79
2023/04/26 04:40:17;;;;;;;5.18;1.80;;;;;;;;;;5015222;28;20026;-78
2023/04/26 04:42:43;;;;;;;8.47;1.70;;;;;;;;;;5015872;28;20021;-79
2023/04/26 04:45:09;;;;;;;3.75;1.70;;;;;;;;;;5014314;28;20622;-78
2023/04/26 04:47:36;;;;;;;6.95;1.52;;;;;;;;;;5013812;28;20088;-79
2023/04/26 04:50:03;;;;;;;5.07;1.60;;;;;;;;;;5014032;28;20030;-77
2023/04/26 04:52:28;;;;;;;2.60;1.05;;;;;;;;;;5013853;28;20033;-79
2023/04/26 04:54:54;;;;;;;5.27;1.70;;;;;;;;;;5013229;28;20478;-78
2023/04/26 04:57:20;;;;;;;3.90;1.60;;;;;;;;;;5014719;28;20320;-79
2023/04/26 04:59:45;;;;;;;4.75;1.38;;;;;;;;;;5014579;28;20477;-77
2023/04/26 05:02:10;;;;;;;3.50;1.65;;;;;;;;;;5013948;28;20401;-79
2023/04/26 05:04:35;;;;;;;5.27;1.53;;;;;;;;;;5012696;28;20032;-77
2023/04/26 05:07:01;;;;;;;7.25;1.63;;;;;;;;;;5013403;28;20346;-77
2023/04/26 05:09:26;;;;;;;4.83;1.50;;;;;;;;;;5013451;28;20077;-78
2023/04/26 05:11:51;;;;;;;7.53;1.47;;;;;;;;;;5013870;28;20259;-78
2023/04/26 05:14:16;;;;;;;8.23;1.50;;;;;;;;;;5015858;28;20260;-77
2023/04/26 05:16:42;;;;;;;3.60;1.63;;;;;;;;;;5017822;28;20252;-77
2023/04/26 05:19:07;;;;;;;5.45;1.30;;;;;;;;;;5018275;28;20026;-78
2023/04/26 05:21:32;;;;;;;7.63;1.63;;;;;;;;;;5018958;28;20033;-78
2023/04/26 05:23:57;;;;;;;5.90;1.90;;;;;;;;;;5018543;28;20495;-78
2023/04/26 05:26:23;;;;;;;5.07;1.70;;;;;;;;;;5018319;28;20021;-78
2023/04/26 05:28:48;;;;;;;6.15;1.60;;;;;;;;;;5018780;28;20800;-78
2023/04/26 05:31:13;;;;;;;3.92;1.33;;;;;;;;;;5019094;28;20029;-78
2023/04/26 05:33:38;;;;;;;8.57;1.60;;;;;;;;;;5018780;28;20065;-77
2023/04/26 05:36:04;;;;;;;6.47;1.70;;;;;;;;;;5017985;28;20263;-78
2023/04/26 05:38:30;;;;;;;7.95;1.50;;;;;;;;;;5016937;28;20260;-78
2023/04/26 05:40:55;;;;;;;6.82;1.42;;;;;;;;;;5017586;28;20022;-78
2023/04/26 05:43:20;;;;;;;5.03;1.63;;;;;;;;;;5018018;28;20393;-79
2023/04/26 05:45:53;;;;;;;3.97;1.63;;;;;;;;;;5016757;28;20093;-79
2023/04/26 05:48:20;;;;;;;5.50;1.70;;;;;;;;;;5017718;28;20026;-79
2023/04/26 05:50:46;;;;;;;5.47;1.63;;;;;;;;;;5017969;28;20072;-78
2023/04/26 05:53:11;;;;;;;11.45;1.80;;;;;;;;;;5016091;28;20030;-78
2023/04/26 05:55:36;;;;;;;5.53;1.95;;;;;;;;;;5016772;28;20026;-79
2023/04/26 05:58:01;;;;;;;7.10;1.45;;;;;;;;;;5016967;28;20037;-79
2023/04/26 06:00:27;;;;;;;4.38;1.58;;;;;;;;;;5016456;28;20116;-79
2023/04/26 06:02:52;;;;;;;3.35;1.50;;;;;;;;;;5016928;28;20041;-78
2023/04/26 06:05:18;;;;;;;8.40;1.85;;;;;;;;;;5018019;28;20066;-79
2023/04/26 06:07:43;;;;;;;8.98;1.83;;;;;;;;;;5016731;28;20080;-79
2023/04/26 06:10:09;;;;;;;3.97;1.95;;;;;;;;;;5018298;28;20022;-78
2023/04/26 06:12:34;;;;;;;5.80;1.63;;;;;;;;;;5017769;28;20028;-77
2023/04/26 06:14:59;;;;;;;5.13;1.60;;;;;;;;;;5016851;28;20061;-78
2023/04/26 06:17:25;;;;;;;7.10;1.90;;;;;;;;;;5017466;28;20029;-78
2023/04/26 06:19:50;;;;;;;2.83;1.15;;;;;;;;;;5017163;28;20269;-78
2023/04/26 06:22:15;;;;;;;5.53;1.60;;;;;;;;;;5017018;28;20076;-79
2023/04/26 06:24:40;;;;;;;8.75;2.15;;;;;;;;;;5017111;28;20038;-79
2023/04/26 06:27:06;;;;;;;4.87;1.20;;;;;;;;;;5017659;28;20022;-79
2023/04/26 06:29:32;;;;;;;12.18;1.67;;;;;;;;;;5017824;28;20259;-79
2023/04/26 06:31:57;;;;;;;7.10;1.63;;;;;;;;;;5018099;28;20026;-78
2023/04/26 06:34:22;;;;;;;9.00;1.50;;;;;;;;;;5017409;28;20036;-78
2023/04/26 06:36:48;;;;;;;5.93;1.47;;;;;;;;;;5017937;28;20271;-79
2023/04/26 06:39:13;;;;;;;6.07;1.97;;;;;;;;;;5017817;28;20349;-78
2023/04/26 06:41:38;;;;;;;3.93;1.60;;;;;;;;;;5017732;28;20279;-78
2023/04/26 06:44:03;;;;;;;7.40;1.90;;;;;;;;;;5017086;28;20322;-78
2023/04/26 06:46:29;;;;;;;9.70;1.60;;;;;;;;;;5015929;28;20271;-79
2023/04/26 06:48:55;;;;;;;5.33;1.40;;;;;;;;;;5015154;28;20137;-77
2023/04/26 06:51:20;;;;;;;7.40;1.48;;;;;;;;;;5017065;28;20271;-78
2023/04/26 06:53:45;;;;;;;7.37;1.90;;;;;;;;;;5018386;28;20022;-79
2023/04/26 06:56:10;;;;;;;3.72;1.42;;;;;;;;;;5018001;28;20255;-78
2023/04/26 06:58:36;;;;;;;4.72;1.30;;;;;;;;;;5016628;28;20022;-79
2023/04/26 07:01:01;;;;;;;9.82;1.70;;;;;;;;;;5017488;28;20444;-77
2023/04/26 07:03:26;;;;;;;4.68;1.63;;;;;;;;;;5015778;28;20045;-79
2023/04/26 07:05:54;;;;;;;7.88;1.60;;;;;;;;;;5016348;28;20033;-78
2023/04/26 07:08:19;;;;;;;4.32;1.63;;;;;;;;;;5017536;28;20087;-78
2023/04/26 07:10:44;;;;;;;6.72;1.80;;;;;;;;;;5019103;28;20100;-79
2023/04/26 07:13:10;;;;;;;7.72;1.80;;;;;;;;;;5022622;28;20022;-78
2023/04/26 07:15:35;;;;;;;2.92;1.17;;;;;;;;;;5019119;28;20038;-79
2023/04/26 07:18:00;;;;;;;6.72;1.20;;;;;;;;;;5019551;28;20026;-79
2023/04/26 07:20:25;;;;;;;4.97;1.53;;;;;;;;;;5018340;28;20081;-78
2023/04/26 07:22:51;;;;;;;4.95;1.40;;;;;;;;;;5016224;28;20264;-79
2023/04/26 07:25:16;;;;;;;6.80;1.73;;;;;;;;;;5016207;28;20030;-78
2023/04/26 07:27:42;;;;;;;5.00;1.50;;;;;;;;;;5016142;28;20299;-78
2023/04/26 07:30:09;;;;;;;6.10;1.42;;;;;;;;;;5015455;28;20048;-78
2023/04/26 07:32:35;;;;;;;3.75;1.45;;;;;;;;;;5016597;28;20025;-78
2023/04/26 07:35:00;;;;;;;4.22;1.42;;;;;;;;;;5025411;28;20026;-77
2023/04/26 07:37:25;;;;;;;3.10;1.42;;;;;;;;;;5020859;28;20545;-77
2023/04/26 07:39:50;;;;;;;7.20;1.52;;;;;;;;;;5023676;28;20028;-77
2023/04/26 07:42:16;;;;;;;8.90;1.40;;;;;;;;;;5023331;28;20107;-77
2023/04/26 07:44:41;;;;;;;7.05;1.33;;;;;;;;;;5016876;28;20263;-76
2023/04/26 07:47:13;;;;;;;8.45;1.50;;;;;;;;;;5014983;28;20026;-76
2023/04/26 07:49:38;;;;;;;8.02;1.50;;;;;;;;;;5013312;28;20026;-77
2023/04/26 07:52:03;;;;;;;7.60;1.70;;;;;;;;;;5015216;28;20474;-79
2023/04/26 07:54:28;;;;;;;4.68;1.27;;;;;;;;;;5014553;28;20650;-76
2023/04/26 07:56:54;;;;;;;4.50;1.17;;;;;;;;;;5014843;28;20085;-78
2023/04/26 07:59:19;;;;;;;3.80;1.10;;;;;;;;;;5014179;28;20251;-81
2023/04/26 08:01:44;;;;;;;5.72;1.50;;;;;;;;;;5015785;28;20026;-78
2023/04/26 08:04:10;;;;;;;5.63;1.52;;;;;;;;;;5015958;28;20552;-79
2023/04/26 08:06:36;;;;;;;3.57;1.10;;;;;;;;;;5017751;28;20100;-79
2023/04/26 08:09:02;;;;;;;10.63;1.50;;;;;;;;;;5016390;28;20342;-80
2023/04/26 08:11:27;;;;;;;6.65;1.20;;;;;;;;;;5015603;28;20096;-79
2023/04/26 08:13:52;;;;;;;3.38;1.02;;;;;;;;;;5014348;28;20366;-79
2023/04/26 08:16:17;;;;;;;5.82;1.40;;;;;;;;;;5015988;28;20028;-79
2023/04/26 08:18:43;;;;;;;5.88;1.38;;;;;;;;;;5016728;28;20602;-80
2023/04/26 08:21:08;;;;;;;6.53;1.43;;;;;;;;;;5015501;28;20037;-79
2023/04/26 08:23:35;;;;;;;3.97;1.10;;;;;;;;;;5015822;28;20263;-79
2023/04/26 08:26:01;;;;;;;8.20;1.50;;;;;;;;;;5015967;28;20263;-80
2023/04/26 08:28:26;;;;;;;6.00;1.35;;;;;;;;;;5015680;28;20022;-79
2023/04/26 08:30:51;;;;;;;6.07;1.60;;;;;;;;;;5016264;28;20028;-80
2023/04/26 08:33:17;;;;;;;6.95;1.50;;;;;;;;;;5015606;28;20025;-80
2023/04/26 08:35:42;;;;;;;6.95;1.58;;;;;;;;;;5015198;28;20108;-78
2023/04/26 08:38:08;;;;;;;7.07;1.43;;;;;;;;;;5016695;28;20404;-79
2023/04/26 08:40:35;;;;;;;5.05;1.20;;;;;;;;;;5014966;28;20642;-79
2023/04/26 08:43:00;;;;;;;4.72;1.30;;;;;;;;;;5014720;28;20030;-79
2023/04/26 08:45:25;;;;;;;7.70;1.30;;;;;;;;;;5015449;28;20026;-79
2023/04/26 08:48:04;;;;;;;4.73;1.33;;;;;;;;;;5014651;28;20749;-79
2023/04/26 08:50:30;;;;;;;7.53;1.48;;;;;;;;;;5015627;28;20662;-78
2023/04/26 08:52:55;;;;;;;5.78;1.58;;;;;;;;;;5015055;28;20024;-79
2023/04/26 08:55:21;;;;;;;4.80;1.55;;;;;;;;;;5015371;28;20037;-79
2023/04/26 08:57:48;;;;;;;7.22;1.38;;;;;;;;;;5015673;28;20029;-79
2023/04/26 09:00:15;;;;;;;7.70;1.70;;;;;;;;;;5015088;28;20101;-79
2023/04/26 09:02:41;;;;;;;9.00;1.90;;;;;;;;;;5014093;28;20026;-80
2023/04/26 09:05:08;;;;;;;5.40;1.23;;;;;;;;;;5015587;28;20100;-79
2023/04/26 09:07:41;;;;;;;2.90;1.20;;;;;;;;;;5014578;28;20544;-79
2023/04/26 09:10:08;;;;;;;5.35;1.40;;;;;;;;;;5014599;28;20029;-79
2023/04/26 09:12:33;;;;;;;2.28;1.10;;;;;;;;;;5015009;28;20477;-78
2023/04/26 09:15:00;;;;;;;1.85;1.00;;;;;;;;;;5015304;28;20056;-79
2023/04/26 09:17:29;;;;;;;4.53;0.98;;;;;;;;;;5015090;28;20072;-79
2023/04/26 09:19:56;;;;;;;7.00;1.27;;;;;;;;;;5015480;28;20022;-79
2023/04/26 09:22:33;;;;;;;5.03;1.50;;;;;;;;;;5016213;28;20026;-79
2023/04/26 09:24:59;;;;;;;3.85;1.00;;;;;;;;;;5013812;28;20556;-78
2023/04/26 09:27:36;;;;;;;4.28;1.27;;;;;;;;;;5015440;28;20025;-80
2023/04/26 09:30:14;;;;;;;8.20;1.40;;;;;;;;;;5016119;28;20018;-77
2023/04/26 09:32:56;;;;;;;4.90;1.40;;;;;;;;;;5015416;28;20026;-79
2023/04/26 09:35:40;;;;;;;5.55;1.23;;;;;;;;;;5013550;28;20076;-79
2023/04/26 09:38:06;;;;;;;;;;;;;;;;;;5014417;28;20022;-78
2023/04/26 09:40:37;;;;;;;6.55;1.50;;;;;;;;;;5013706;28;19914;-79
2023/04/26 09:43:06;;;;;;;6.07;1.58;;;;;;;;;;5015279;28;20424;-79
2023/04/26 09:45:42;;;;;;;2.65;1.10;;;;;;;;;;5014192;28;20481;-80
2023/04/26 09:48:29;;;;;;;2.35;1.10;;;;;;;;;;5014920;28;20080;-79
2023/04/26 09:50:56;;;;;;;4.82;1.20;;;;;;;;;;5014786;28;20046;-80
2023/04/26 09:53:29;;;;;;;6.45;1.50;;;;;;;;;;5014418;28;20022;-80
2023/04/26 09:55:56;;;;;;;5.38;1.67;;;;;;;;;;5014191;28;20076;-79
2023/04/26 09:58:22;;;;;;;6.47;1.90;;;;;;;;;;5015122;28;20485;-79
2023/04/26 10:00:50;;;;;;;5.68;2.03;;;;;;;;;;5016777;28;20033;-78
2023/04/26 10:03:17;;;;;;;4.47;1.40;;;;;;;;;;5017149;28;20485;-79
2023/04/26 10:05:43;;;;;;;9.48;1.58;;;;;;;;;;5018093;28;20025;-80
2023/04/26 10:08:09;;;;;;;5.85;1.17;;;;;;;;;;5018198;28;20022;-79
2023/04/26 10:10:35;;;;;;;6.28;1.33;;;;;;;;;;5016896;28;20053;-79
2023/04/26 10:13:00;;;;;;;10.00;1.52;;;;;;;;;;5017860;28;20057;-79
2023/04/26 10:15:26;;;;;;;5.63;1.40;;;;;;;;;;5015954;28;20445;-79
2023/04/26 10:17:51;;;;;;;7.22;1.50;;;;;;;;;;5018015;28;20084;-78
2023/04/26 10:20:19;;;;;;;2.90;1.10;;;;;;;;;;5017656;28;20025;-79
2023/04/26 10:22:51;;;;;;;5.38;1.35;;;;;;;;;;5018569;28;20659;-79
2023/04/26 10:25:16;;;;;;;5.30;1.20;;;;;;;;;;5016429;28;20018;-79
2023/04/26 10:27:41;;;;;;;6.07;1.50;;;;;;;;;;5015660;28;20457;-78
2023/04/26 10:30:08;;;;;;;5.03;1.50;;;;;;;;;;5017199;28;20033;-79
2023/04/26 10:32:56;;;;;;;8.43;1.60;;;;;;;;;;5017204;28;20075;-79
2023/04/26 10:35:22;;;;;;;5.68;1.70;;;;;;;;;;5016746;28;20026;-79
2023/04/26 10:38:00;;;;;;;6.32;1.25;;;;;;;;;;5016824;28;20184;-79
2023/04/26 10:40:37;;;;;;;4.32;1.38;;;;;;;;;;5015128;28;20026;-79
2023/04/26 10:43:08;;;;;;;4.03;1.60;;;;;;;;;;5017479;28;20022;-78
2023/04/26 10:45:35;;;;;;;3.00;1.20;;;;;;;;;;5016765;28;20026;-80
2023/04/26 10:48:39;;;;;;;7.53;1.52;;;;;;;;;;5016409;28;20400;-79
2023/04/26 10:51:07;;;;;;;6.43;1.33;;;;;;;;;;4976443;28;20034;-80
2023/04/26 10:53:48;;;;;;;5.10;1.50;;;;;;;;;;4976116;28;20039;-80
2023/04/26 10:56:22;;;;;;;3.50;1.27;;;;;;;;;;4999898;28;20038;-79
2023/04/26 10:58:47;;;;;;;8.18;1.30;;;;;;;;;;5015781;28;20511;-80
2023/04/26 11:01:19;;;;;;;5.22;1.65;;;;;;;;;;5017460;28;20026;-80
2023/04/26 11:03:57;;;;;;;2.65;1.35;;;;;;;;;;5016793;28;20552;-79
2023/04/26 11:06:23;;;;;;;6.28;1.45;;;;;;;;;;5020735;28;20037;-78
2023/04/26 11:08:49;;;;;;;4.70;1.33;;;;;;;;;;5029156;28;20030;-78
2023/04/26 11:11:16;;;;;;;6.38;1.50;;;;;;;;;;5025412;28;20037;-78
2023/04/26 11:13:42;;;;;;;5.50;1.55;;;;;;;;;;5031896;28;20036;-78
2023/04/26 11:16:12;;;;;;;6.22;1.60;;;;;;;;;;5023232;28;20029;-78
2023/04/26 11:18:43;;;;;;;3.63;1.35;;;;;;;;;;5021680;28;20088;-77
2023/04/26 11:21:09;;;;;;;6.72;1.40;;;;;;;;;;5015342;28;20029;-78
2023/04/26 11:23:35;;;;;;;3.35;1.40;;;;;;;;;;5016774;28;20029;-78
2023/04/26 11:26:10;;;;;;;8.27;1.90;;;;;;;;;;5014998;28;20060;-79
2023/04/26 11:28:37;;;;;;;4.80;1.88;;;;;;;;;;5016924;28;20040;-79
2023/04/26 11:31:03;;;;;;;5.68;1.73;;;;;;;;;;5016428;28;20018;-79
2023/04/26 11:33:29;;;;;;;8.45;1.58;;;;;;;;;;5016897;28;20032;-79
2023/04/26 11:35:56;;;;;;;4.93;1.65;;;;;;;;;;5016581;28;20045;-78
2023/04/26 11:38:23;;;;;;;6.53;1.70;;;;;;;;;;5016319;28;20030;-78
2023/04/26 11:40:56;;;;;;;3.90;1.23;;;;;;;;;;5015845;28;20018;-79
2023/04/26 11:43:28;;;;;;;4.28;1.40;;;;;;;;;;5015708;28;20026;-78
2023/04/26 11:45:58;;;;;;;4.85;1.70;;;;;;;;;;5015273;28;20116;-78
2023/04/26 11:48:23;;;;;;;5.53;1.30;;;;;;;;;;5015090;28;20432;-80
2023/04/26 11:50:49;;;;;;;3.40;1.23;;;;;;;;;;5016150;28;20021;-80
2023/04/26 11:53:15;;;;;;;4.72;1.48;;;;;;;;;;5015455;28;20025;-79
2023/04/26 11:55:40;;;;;;;7.28;1.70;;;;;;;;;;5014585;28;20033;-79
2023/04/26 11:58:11;;;;;;;1.85;0.98;;;;;;;;;;5013406;28;20397;-78
2023/04/26 12:00:37;;;;;;;7.38;1.90;;;;;;;;;;5014789;28;20022;-79
2023/04/26 12:03:10;;;;;;;5.22;1.40;;;;;;;;;;5014672;28;20049;-78
2023/04/26 12:05:35;;;;;;;2.72;1.30;;;;;;;;;;5014529;28;20030;-78
2023/04/26 12:08:01;;;;;;;3.33;1.20;;;;;;;;;;5013788;28;20033;-79
2023/04/26 12:10:30;;;;;;;6.88;1.80;;;;;;;;;;5014767;28;20053;-78
2023/04/26 12:12:58;;;;;;;2.25;1.30;;;;;;;;;;5014786;28;20033;-80
2023/04/26 12:15:27;;;;;;;5.30;1.50;;;;;;;;;;5014670;28;20061;-79
2023/04/26 12:18:05;;;;;;;3.95;1.40;;;;;;;;;;5015032;28;20080;-80
2023/04/26 12:20:33;;;;;;;4.70;1.45;;;;;;;;;;5014654;28;20047;-80
2023/04/26 12:23:04;;;;;;;10.40;1.85;;;;;;;;;;5013193;28;20152;-79
2023/04/26 12:25:30;;;;;;;3.58;1.60;;;;;;;;;;5015953;28;20064;-79
2023/04/26 12:27:56;;;;;;;3.95;1.50;;;;;;;;;;5013940;28;20018;-80
2023/04/26 12:30:21;;;;;;;5.57;1.63;;;;;;;;;;5014046;28;20481;-79
2023/04/26 12:32:47;;;;;;;4.43;1.88;;;;;;;;;;5015584;28;20022;-80
2023/04/26 12:35:12;;;;;;;8.05;1.67;;;;;;;;;;5014443;28;20029;-80
2023/04/26 12:37:37;;;;;;;6.25;1.52;;;;;;;;;;5014486;28;20033;-78
2023/04/26 12:40:06;;;;;;;4.45;1.83;;;;;;;;;;5014757;28;20025;-79
2023/04/26 12:42:31;;;;;;;4.13;1.67;;;;;;;;;;5014769;28;20381;-79
2023/04/26 12:44:57;;;;;;;3.88;1.80;;;;;;;;;;5014087;28;20022;-79
2023/04/26 12:47:22;;;;;;;2.88;1.60;;;;;;;;;;5015358;28;20026;-79
2023/04/26 12:49:47;;;;;;;4.40;1.67;;;;;;;;;;5015374;28;20030;-79
2023/04/26 12:52:12;;;;;;;5.57;1.77;;;;;;;;;;5013941;28;20327;-79
2023/04/26 12:54:38;;;;;;;6.38;1.70;;;;;;;;;;5015123;28;20310;-79
2023/04/26 12:57:04;;;;;;;6.43;1.73;;;;;;;;;;5014234;28;20029;-80
2023/04/26 12:59:30;;;;;;;8.93;1.83;;;;;;;;;;5015385;28;20033;-78
2023/04/26 13:01:55;;;;;;;6.97;1.73;;;;;;;;;;5016855;28;20026;-80
2023/04/26 13:04:20;;;;;;;5.40;1.80;;;;;;;;;;5016613;28;20424;-80
2023/04/26 13:06:48;;;;;;;6.07;1.95;;;;;;;;;;5015210;28;20271;-79
2023/04/26 13:09:13;;;;;;;9.20;2.00;;;;;;;;;;5016066;28;20025;-79
2023/04/26 13:11:39;;;;;;;4.55;1.60;;;;;;;;;;5014975;28;20096;-79
2023/04/26 13:14:06;;;;;;;3.20;1.65;;;;;;;;;;5013732;28;20041;-80
2023/04/26 13:16:32;;;;;;;6.88;2.00;;;;;;;;;;5013165;28;20025;-80
2023/04/26 13:18:57;;;;;;;4.97;1.83;;;;;;;;;;5014947;28;20440;-79
2023/04/26 13:21:22;;;;;;;5.28;1.60;;;;;;;;;;5013608;28;20062;-79
2023/04/26 13:23:47;;;;;;;7.28;1.73;;;;;;;;;;5014896;28;20397;-80
2023/04/26 13:26:13;;;;;;;3.40;1.90;;;;;;;;;;5014533;28;20038;-79
2023/04/26 13:28:38;;;;;;;4.00;1.67;;;;;;;;;;5014874;28;20255;-80
2023/04/26 13:31:03;;;;;;;2.45;1.48;;;;;;;;;;5013616;28;20018;-80
2023/04/26 13:33:29;;;;;;;3.72;1.70;;;;;;;;;;5013854;28;20032;-80
2023/04/26 13:35:54;;;;;;;3.45;1.70;;;;;;;;;;5016288;28;20029;-78
2023/04/26 13:38:20;;;;;;;4.80;1.73;;;;;;;;;;5018828;28;20079;-79
2023/04/26 13:40:45;;;;;;;4.35;1.38;;;;;;;;;;5018943;28;20041;-78
2023/04/26 13:43:10;;;;;;;3.58;1.45;;;;;;;;;;5017193;28;20025;-78
2023/04/26 13:45:35;;;;;;;5.82;1.85;;;;;;;;;;5018404;28;20397;-78
2023/04/26 13:48:01;;;;;;;4.18;1.73;;;;;;;;;;5023334;28;20026;-78
2023/04/26 13:50:26;;;;;;;4.53;1.60;;;;;;;;;;5025033;28;20049;-79
2023/04/26 13:52:51;;;;;;;6.37;1.53;;;;;;;;;;5026707;28;20275;-78
2023/04/26 13:55:17;;;;;;;3.65;1.88;;;;;;;;;;5028234;28;20259;-79
2023/04/26 13:57:42;;;;;;;8.60;2.00;;;;;;;;;;5019769;28;20041;-79
2023/04/26 14:00:08;;;;;;;4.60;1.50;;;;;;;;;;5019795;28;20030;-80
2023/04/26 14:02:33;;;;;;;4.20;1.50;;;;;;;;;;5018218;28;20275;-79
2023/04/26 14:04:59;;;;;;;11.05;4.80;;;;;;;;;;5018842;28;20096;-80
2023/04/26 14:07:24;;;;;;;5.10;1.70;;;;;;;;;;5020047;28;20022;-79
2023/04/26 14:09:50;;;;;;;3.45;1.52;;;;;;;;;;5020121;28;20032;-79
2023/04/26 14:12:15;;;;;;;3.58;1.65;;;;;;;;;;5021009;28;20052;-80
2023/04/26 14:14:41;;;;;;;5.47;1.70;;;;;;;;;;5021150;28;20547;-79
2023/04/26 14:17:06;;;;;;;2.83;1.43;;;;;;;;;;5019336;28;20030;-78
2023/04/26 14:19:31;;;;;;;4.88;2.05;;;;;;;;;;5022555;28;20334;-79
2023/04/26 14:21:56;;;;;;;7.47;2.22;;;;;;;;;;5018323;28;20026;-79
2023/04/26 14:24:21;;;;;;;7.87;1.80;;;;;;;;;;5018492;28;20496;-80
2023/04/26 14:26:47;;;;;;;5.03;1.58;;;;;;;;;;5018151;28;20742;-79
2023/04/26 14:29:12;;;;;;;6.85;1.70;;;;;;;;;;5017622;28;20076;-80
2023/04/26 14:31:40;;;;;;;4.25;1.63;;;;;;;;;;5015916;28;20026;-78
2023/04/26 14:34:06;;;;;;;4.10;1.50;;;;;;;;;;5016998;28;20026;-80
2023/04/26 14:36:32;;;;;;;4.80;1.47;;;;;;;;;;5017129;28;20026;-79
2023/04/26 14:38:57;;;;;;;3.22;1.38;;;;;;;;;;5017988;28;20263;-80